This is the latest recevied weather packets stored in our database for station/object OK2ILA-1. If no packets are shown the sender has not sent any weather packets the latest 1 day(s).
| Time | Temp. | Humidity | Pressure | Rain* | Wind** | Luminosity | Snow |
|---|---|---|---|---|---|---|---|
| 1777949425 | 10.56° C | 100% | 1012.2 hPa | 0 mm | 0.45 m/s, 64° | - | - |
| 1777948704 | 11.11° C | 100% | 1012.3 hPa | 0 mm | 0.89 m/s, 129° | - | - |
| 1777947984 | 11.11° C | 100% | 1012.4 hPa | 0 mm | 0.89 m/s, 350° | - | - |
| 1777947263 | 11.11° C | 100% | 1012.4 hPa | 0 mm | 0 m/s | - | - |
| 1777946542 | 11.67° C | 100% | 1012.5 hPa | 0 mm | 0.89 m/s, 351° | - | - |
| 1777945822 | 11.67° C | 100% | 1012.6 hPa | 0 mm | 0.45 m/s, 28° | - | - |
| 1777945101 | 12.22° C | 100% | 1012.7 hPa | 0 mm | 0 m/s | - | - |
| 1777944380 | 13.33° C | 100% | 1012.7 hPa | 0 mm | 0 m/s | - | - |
| 1777943660 | 12.78° C | 100% | 1012.7 hPa | 0 mm | 0.89 m/s, 295° | - | - |
| 1777942939 | 12.22° C | 100% | 1012.8 hPa | 0 mm | 0.89 m/s, 279° | - | - |
| 1777942219 | 11.67° C | 100% | 1012.8 hPa | 0 mm | 0.89 m/s, 295° | - | - |
| 1777941498 | 12.22° C | 100% | 1012.9 hPa | 0 mm | 0.89 m/s, 264° | - | - |
| 1777940777 | 11.67° C | 100% | 1013.1 hPa | 0 mm | 0.89 m/s, 246° | - | - |
| 1777940056 | 11.67° C | 100% | 1013.2 hPa | 0 mm | 1.34 m/s, 278° | - | - |
| 1777939336 | 11.67° C | 100% | 1013.4 hPa | 0 mm | 0 m/s | - | - |
| 1777938615 | 12.22° C | 100% | 1013.6 hPa | 0 mm | 0 m/s | - | - |
| 1777937894 | 12.22° C | 100% | 1013.7 hPa | 0 mm | 0 m/s | - | - |
| 1777937174 | 12.78° C | 100% | 1013.7 hPa | 0 mm | 0 m/s | - | - |
| 1777936453 | 12.78° C | 100% | 1013.9 hPa | 0 mm | 0 m/s | - | - |
| 1777935732 | 13.33° C | 100% | 1014 hPa | 0 mm | 0 m/s | - | - |
| 1777935011 | 13.33° C | 100% | 1014.1 hPa | 0 mm | 0 m/s | - | - |
| 1777934291 | 13.33° C | 100% | 1014.2 hPa | 0 mm | 0 m/s | - | - |
| 1777933570 | 13.89° C | 100% | 1014.1 hPa | 0 mm | 0 m/s | - | - |
* Rain latest hour (hover to see other rain measurements)
** Current wind speed in m/s (hover to see current wind gust speed)